createdAt,value
2018-01-26T00:01:22.052Z,7.78
2018-01-26T00:03:49.536Z,7.07
2018-01-26T00:06:17.025Z,7.73
2018-01-26T00:08:44.560Z,6.70
2018-01-26T00:11:12.000Z,6.28
2018-01-26T00:13:39.464Z,6.45
2018-01-26T00:16:06.932Z,6.47
2018-01-26T00:18:36.577Z,6.43
2018-01-26T00:21:04.022Z,5.50
2018-01-26T00:23:31.578Z,6.70
2018-01-26T00:25:59.010Z,6.60
2018-01-26T00:28:26.490Z,7.32
2018-01-26T00:30:54.855Z,7.00
2018-01-26T00:33:22.354Z,6.30
2018-01-26T00:35:50.086Z,5.60
2018-01-26T00:38:17.517Z,5.97
2018-01-26T00:40:44.981Z,6.53
2018-01-26T00:43:12.433Z,6.83
2018-01-26T00:45:39.883Z,6.47
2018-01-26T00:48:07.370Z,6.62
2018-01-26T00:50:34.885Z,6.90
2018-01-26T00:53:02.960Z,6.80
2018-01-26T00:55:30.399Z,8.27
2018-01-26T00:57:57.836Z,7.07
2018-01-26T01:00:25.584Z,6.70
2018-01-26T01:02:53.032Z,6.30
2018-01-26T01:05:20.508Z,8.07
2018-01-26T01:07:48.013Z,6.13
2018-01-26T01:10:16.368Z,7.65
2018-01-26T01:12:43.846Z,7.47
2018-01-26T01:15:11.356Z,7.23
2018-01-26T01:17:47.008Z,7.40
2018-01-26T01:20:14.461Z,7.25
2018-01-26T01:22:41.988Z,6.20
2018-01-26T01:25:09.443Z,8.30
2018-01-26T01:27:36.872Z,7.07
2018-01-26T01:30:04.531Z,6.22
2018-01-26T01:32:32.091Z,8.07
2018-01-26T01:34:59.669Z,6.60
2018-01-26T01:37:27.108Z,7.27
2018-01-26T01:39:55.409Z,7.32
2018-01-26T01:42:22.861Z,6.70
2018-01-26T01:44:50.318Z,6.57
2018-01-26T01:47:17.849Z,6.90
2018-01-26T01:49:45.253Z,6.37
2018-01-26T01:52:12.748Z,6.53
2018-01-26T01:54:40.173Z,8.27
2018-01-26T01:57:07.621Z,6.50
2018-01-26T01:59:35.107Z,6.70
2018-01-26T02:02:02.567Z,7.15
2018-01-26T02:04:30.020Z,7.50
2018-01-26T02:06:58.208Z,9.05
2018-01-26T02:09:25.672Z,7.03
2018-01-26T02:11:53.145Z,6.07
2018-01-26T02:14:21.416Z,8.33
2018-01-26T02:16:49.616Z,7.30
2018-01-26T02:19:29.100Z,6.90
2018-01-26T02:21:56.634Z,7.40
2018-01-26T02:24:41.626Z,8.23
2018-01-26T02:27:09.071Z,7.23
2018-01-26T02:29:36.532Z,8.00
2018-01-26T02:32:04.005Z,7.00
2018-01-26T02:34:31.444Z,6.47
2018-01-26T02:36:58.916Z,6.50
2018-01-26T02:39:26.388Z,6.93
2018-01-26T02:41:54.601Z,7.32
2018-01-26T02:44:22.068Z,6.72
2018-01-26T02:46:50.468Z,7.53
2018-01-26T02:49:21.305Z,8.23
2018-01-26T02:51:48.970Z,7.40
2018-01-26T02:54:17.433Z,7.60
2018-01-26T02:56:45.823Z,6.93
2018-01-26T02:59:13.280Z,7.03
2018-01-26T03:01:40.716Z,7.00
2018-01-26T03:04:12.179Z,6.70
2018-01-26T03:06:40.408Z,7.10
2018-01-26T03:09:07.884Z,7.73
2018-01-26T03:11:35.555Z,7.80
2018-01-26T03:14:03.252Z,7.87
2018-01-26T03:16:30.712Z,6.80
2018-01-26T03:18:58.460Z,8.00
2018-01-26T03:21:25.945Z,7.50
2018-01-26T03:23:54.028Z,6.50
2018-01-26T03:26:21.491Z,6.53
2018-01-26T03:28:48.941Z,7.30
2018-01-26T03:31:16.399Z,7.60
2018-01-26T03:33:43.862Z,6.67
2018-01-26T03:36:11.457Z,6.87
2018-01-26T03:38:38.933Z,6.33
2018-01-26T03:41:06.388Z,7.40
2018-01-26T03:43:33.900Z,8.33
2018-01-26T03:46:03.087Z,7.78
2018-01-26T03:48:31.328Z,7.60
2018-01-26T03:50:58.911Z,6.87
2018-01-26T03:53:26.887Z,9.43
2018-01-26T03:55:54.405Z,7.40
2018-01-26T03:58:21.864Z,6.70
2018-01-26T04:00:49.324Z,6.72
2018-01-26T04:03:16.957Z,7.53
2018-01-26T04:05:44.468Z,6.37
2018-01-26T04:08:11.928Z,6.90
2018-01-26T04:10:39.472Z,6.10
2018-01-26T04:13:06.924Z,6.72
2018-01-26T04:15:34.956Z,6.50
2018-01-26T04:18:02.417Z,7.28
2018-01-26T04:20:34.386Z,6.80
2018-01-26T04:23:01.840Z,6.03
2018-01-26T04:25:30.009Z,7.10
2018-01-26T04:27:57.404Z,7.05
2018-01-26T04:30:24.872Z,6.70
2018-01-26T04:32:52.344Z,7.07
2018-01-26T04:35:19.800Z,7.05
2018-01-26T04:37:47.249Z,6.67
2018-01-26T04:40:15.510Z,7.00
2018-01-26T04:42:44.630Z,6.40
2018-01-26T04:45:12.410Z,6.50
2018-01-26T04:47:39.836Z,7.43
2018-01-26T04:50:07.301Z,6.93
2018-01-26T04:52:34.852Z,6.30
2018-01-26T04:55:02.936Z,6.60
2018-01-26T04:57:31.168Z,6.80
2018-01-26T04:59:58.657Z,6.78
2018-01-26T05:02:26.114Z,6.20
2018-01-26T05:04:53.573Z,6.95
2018-01-26T05:07:21.024Z,6.50
2018-01-26T05:09:48.784Z,6.90
2018-01-26T05:12:17.768Z,6.68
2018-01-26T05:14:45.233Z,7.03
2018-01-26T05:17:12.736Z,6.73
2018-01-26T05:19:40.188Z,7.80
2018-01-26T05:22:07.672Z,7.20
2018-01-26T05:24:36.054Z,7.95
2018-01-26T05:27:03.553Z,6.90
2018-01-26T05:29:31.025Z,6.50
2018-01-26T05:31:59.292Z,7.05
2018-01-26T05:34:26.728Z,6.60
2018-01-26T05:36:54.189Z,8.10
2018-01-26T05:39:21.668Z,7.55
2018-01-26T05:41:50.911Z,8.52
2018-01-26T05:44:18.344Z,7.33
2018-01-26T05:46:46.390Z,6.83
2018-01-26T05:49:14.527Z,7.83
2018-01-26T05:51:41.996Z,8.43
2018-01-26T05:54:09.541Z,9.20
2018-01-26T05:56:37.017Z,8.00
2018-01-26T05:59:04.493Z,9.13
2018-01-26T06:01:31.953Z,8.07
2018-01-26T06:03:59.409Z,7.27
2018-01-26T06:06:28.556Z,7.77
2018-01-26T06:08:59.428Z,7.37
2018-01-26T06:11:26.904Z,7.30
2018-01-26T06:13:54.345Z,7.77
2018-01-26T06:16:21.806Z,7.78
2018-01-26T06:18:49.550Z,8.13
2018-01-26T06:21:17.926Z,7.70
2018-01-26T06:23:45.401Z,8.30
2018-01-26T06:26:12.863Z,9.15
2018-01-26T06:28:40.292Z,7.80
2018-01-26T06:31:07.765Z,8.07
2018-01-26T06:33:35.825Z,7.23
2018-01-26T06:36:03.315Z,8.90
2018-01-26T06:38:31.372Z,10.23
2018-01-26T06:40:58.852Z,8.17
2018-01-26T06:43:26.319Z,8.30
2018-01-26T06:45:53.799Z,7.87
2018-01-26T06:48:21.701Z,8.60
2018-01-26T06:50:50.830Z,8.80
2018-01-26T06:53:18.277Z,7.40
2018-01-26T06:55:45.813Z,8.32
2018-01-26T06:58:14.068Z,8.43
2018-01-26T07:00:41.517Z,8.67
2018-01-26T07:03:10.520Z,7.45
2018-01-26T07:05:37.972Z,9.00
2018-01-26T07:08:05.448Z,7.80
2018-01-26T07:10:32.923Z,8.13
2018-01-26T07:13:00.396Z,8.70
2018-01-26T07:15:28.786Z,8.10
2018-01-26T07:17:56.261Z,8.20
2018-01-26T07:20:24.185Z,9.03
2018-01-26T07:22:52.452Z,10.50
2018-01-26T07:25:19.916Z,8.00
2018-01-26T07:27:48.309Z,9.88
2018-01-26T07:30:16.611Z,8.97
2018-01-26T07:32:44.105Z,8.53
2018-01-26T07:35:11.598Z,8.70
2018-01-26T07:37:39.059Z,8.73
2018-01-26T07:40:07.252Z,8.20
2018-01-26T07:42:35.357Z,7.85
2018-01-26T07:45:02.823Z,8.45
2018-01-26T07:47:30.284Z,7.60
2018-01-26T07:49:57.765Z,7.53
2018-01-26T07:52:25.288Z,7.70
2018-01-26T07:54:52.745Z,8.53
2018-01-26T07:57:20.224Z,8.35
2018-01-26T07:59:47.665Z,8.10
2018-01-26T08:02:15.901Z,9.18
2018-01-26T08:04:43.537Z,8.27
2018-01-26T08:07:10.979Z,10.20
2018-01-26T08:09:38.430Z,8.87
2018-01-26T08:12:05.897Z,7.60
2018-01-26T08:14:33.342Z,9.37
2018-01-26T08:17:00.784Z,8.80
2018-01-26T08:19:28.277Z,9.88
2018-01-26T08:21:55.792Z,7.95
2018-01-26T08:24:27.796Z,10.00
2018-01-26T08:26:55.276Z,9.30
2018-01-26T08:29:22.717Z,8.07
2018-01-26T08:31:50.948Z,9.43
2018-01-26T08:34:18.786Z,9.35
2018-01-26T08:36:46.263Z,8.25
2018-01-26T08:39:13.867Z,8.60
2018-01-26T08:41:41.312Z,8.70
2018-01-26T08:44:08.809Z,7.65
2018-01-26T08:46:36.261Z,9.05
2018-01-26T08:49:03.727Z,9.80
2018-01-26T08:51:31.202Z,7.87
2018-01-26T08:53:58.754Z,9.15
2018-01-26T08:56:27.913Z,8.50
2018-01-26T08:58:55.360Z,9.40
2018-01-26T09:01:23.638Z,9.75
2018-01-26T09:03:51.632Z,9.52
2018-01-26T09:06:19.097Z,10.45
2018-01-26T09:08:46.580Z,8.60
2018-01-26T09:11:18.609Z,8.93
2018-01-26T09:13:46.821Z,8.82
2018-01-26T09:16:14.274Z,11.18
2018-01-26T09:18:41.741Z,9.27
2018-01-26T09:21:09.222Z,10.75
2018-01-26T09:23:37.021Z,9.18
2018-01-26T09:26:08.241Z,10.67
2018-01-26T09:28:36.481Z,8.85
2018-01-26T09:31:03.948Z,9.30
2018-01-26T09:33:31.428Z,10.00
2018-01-26T09:35:58.909Z,9.07
2018-01-26T09:38:26.364Z,10.17
2018-01-26T09:40:57.277Z,12.30
2018-01-26T09:43:27.466Z,9.32
2018-01-26T09:45:55.627Z,9.93
2018-01-26T09:48:23.350Z,9.90
2018-01-26T09:50:51.024Z,10.60
2018-01-26T09:53:18.468Z,9.27
2018-01-26T09:55:45.945Z,9.05
2018-01-26T09:58:13.420Z,8.33
2018-01-26T10:00:41.048Z,9.50
2018-01-26T10:03:08.492Z,8.80
2018-01-26T10:05:35.960Z,9.60
2018-01-26T10:08:04.831Z,9.40
2018-01-26T10:10:32.260Z,10.13
2018-01-26T10:12:59.762Z,10.00
2018-01-26T10:15:27.213Z,9.85
2018-01-26T10:17:54.690Z,9.90
2018-01-26T10:20:23.375Z,10.63
2018-01-26T10:22:50.815Z,10.97
2018-01-26T10:25:18.594Z,12.70
2018-01-26T10:27:46.053Z,10.80
2018-01-26T10:30:13.545Z,10.37
2018-01-26T10:32:41.004Z,10.00
2018-01-26T10:35:08.713Z,10.03
2018-01-26T10:37:36.200Z,10.10
2018-01-26T10:40:03.657Z,9.73
2018-01-26T10:42:31.785Z,9.90
2018-01-26T10:44:59.292Z,10.07
2018-01-26T10:47:26.940Z,10.40
2018-01-26T10:49:54.427Z,10.53
2018-01-26T10:52:21.998Z,11.95
2018-01-26T10:54:51.432Z,10.10
2018-01-26T10:57:18.896Z,10.90
2018-01-26T10:59:46.380Z,9.80
2018-01-26T11:02:13.898Z,10.50
2018-01-26T11:04:41.348Z,10.60
2018-01-26T11:07:08.833Z,10.10
2018-01-26T11:09:36.316Z,11.57
2018-01-26T11:12:04.592Z,10.35
2018-01-26T11:14:32.145Z,10.80
2018-01-26T11:17:00.376Z,11.93
2018-01-26T11:19:27.860Z,10.80
2018-01-26T11:21:55.348Z,11.52
2018-01-26T11:24:24.640Z,11.66
2018-01-26T11:26:52.083Z,12.00
2018-01-26T11:29:23.286Z,11.63
2018-01-26T11:31:50.834Z,12.40
2018-01-26T11:34:18.841Z,12.18
2018-01-26T11:36:46.297Z,10.70
2018-01-26T11:39:13.786Z,12.03
2018-01-26T11:41:42.082Z,11.40
2018-01-26T11:44:17.000Z,12.68
2018-01-26T11:46:45.563Z,15.00
2018-01-26T11:49:13.956Z,11.73
2018-01-26T11:51:41.444Z,10.97
2018-01-26T11:54:08.922Z,12.67
2018-01-26T11:56:36.609Z,12.60
2018-01-26T11:59:11.519Z,12.27
2018-01-26T12:01:39.417Z,11.77
2018-01-26T12:04:06.875Z,10.40
2018-01-26T12:06:34.393Z,11.30
2018-01-26T12:09:01.877Z,13.15
2018-01-26T12:11:30.121Z,13.87
2018-01-26T12:14:01.760Z,11.40
2018-01-26T12:16:29.220Z,11.35
2018-01-26T12:18:56.693Z,11.23
2018-01-26T12:21:24.171Z,12.30
2018-01-26T12:23:52.045Z,12.15
2018-01-26T12:26:20.108Z,12.63
2018-01-26T12:28:51.958Z,12.75
2018-01-26T12:31:20.231Z,12.63
2018-01-26T12:33:48.937Z,11.23
2018-01-26T12:36:16.519Z,11.50
2018-01-26T12:38:44.119Z,11.07
2018-01-26T12:41:11.736Z,13.52
2018-01-26T12:43:39.228Z,11.00
2018-01-26T12:46:07.720Z,11.67
2018-01-26T12:48:35.360Z,11.00
2018-01-26T12:51:03.640Z,10.20
2018-01-26T12:53:31.254Z,10.88
2018-01-26T12:55:58.692Z,11.33
2018-01-26T12:58:26.436Z,11.07
2018-01-26T13:00:53.967Z,10.67
2018-01-26T13:03:22.596Z,11.75
2018-01-26T13:05:50.084Z,9.43
2018-01-26T13:08:17.607Z,9.80
2018-01-26T13:10:45.050Z,10.20
2018-01-26T13:13:12.641Z,10.57
2018-01-26T13:15:40.740Z,8.60
2018-01-26T13:18:08.264Z,9.40
2018-01-26T13:20:35.801Z,8.50
2018-01-26T13:23:03.328Z,10.17
2018-01-26T13:25:31.447Z,9.20
2018-01-26T13:27:58.974Z,10.03
2018-01-26T13:30:26.540Z,9.45
2018-01-26T13:32:54.786Z,11.12
2018-01-26T13:35:22.288Z,9.50
2018-01-26T13:37:49.795Z,9.27
2018-01-26T13:40:17.257Z,8.90
2018-01-26T13:42:45.504Z,8.80
2018-01-26T13:45:20.969Z,10.45
2018-01-26T13:47:48.434Z,11.33
2018-01-26T13:50:17.330Z,10.60
2018-01-26T13:52:44.827Z,10.40
2018-01-26T13:55:12.353Z,9.10
2018-01-26T13:57:39.796Z,9.33
2018-01-26T14:00:08.315Z,10.40
2018-01-26T14:02:36.006Z,12.10
2018-01-26T14:05:04.167Z,10.18
2018-01-26T14:07:32.530Z,10.37
2018-01-26T14:10:00.015Z,8.90
2018-01-26T14:12:27.524Z,10.23
2018-01-26T14:14:55.016Z,10.40
2018-01-26T14:17:23.402Z,9.15
2018-01-26T14:19:50.889Z,10.40
2018-01-26T14:22:18.352Z,9.57
2018-01-26T14:24:45.816Z,11.30
2018-01-26T14:27:13.413Z,9.98
2018-01-26T14:29:40.912Z,12.43
2018-01-26T14:32:08.378Z,9.85
2018-01-26T14:34:36.904Z,9.42
2018-01-26T14:37:04.416Z,10.30
2018-01-26T14:39:31.873Z,7.80
2018-01-26T14:41:59.328Z,6.50
2018-01-26T14:44:26.797Z,5.55
2018-01-26T14:46:54.244Z,6.28
2018-01-26T14:49:21.853Z,4.90
2018-01-26T14:51:49.323Z,4.70
2018-01-26T14:54:16.765Z,4.03
2018-01-26T14:56:45.796Z,4.70
2018-01-26T14:59:13.258Z,4.03
2018-01-26T15:01:43.476Z,5.60
2018-01-26T15:04:10.925Z,4.17
2018-01-26T15:06:38.405Z,5.20
2018-01-26T15:09:05.878Z,6.30
2018-01-26T15:11:33.313Z,5.30
2018-01-26T15:14:00.776Z,6.40
2018-01-26T15:16:36.897Z,5.93
2018-01-26T15:19:04.332Z,4.40
2018-01-26T15:21:31.853Z,6.80
2018-01-26T15:24:00.241Z,5.60
2018-01-26T15:26:27.730Z,5.55
2018-01-26T15:28:55.308Z,6.00
2018-01-26T15:31:22.837Z,4.75
2018-01-26T15:33:50.333Z,4.70
2018-01-26T15:36:17.802Z,4.75
2018-01-26T15:38:45.299Z,6.60
2018-01-26T15:41:14.460Z,5.43
2018-01-26T15:43:42.437Z,5.67
2018-01-26T15:46:09.892Z,6.20
2018-01-26T15:48:41.094Z,5.80
2018-01-26T15:51:09.561Z,4.78
2018-01-26T15:53:37.108Z,5.72
2018-01-26T15:56:05.822Z,5.97
2018-01-26T15:58:33.776Z,6.50
2018-01-26T16:01:01.232Z,5.40
2018-01-26T16:03:33.300Z,6.10
2018-01-26T16:06:00.854Z,6.10
2018-01-26T16:08:29.711Z,5.75
2018-01-26T16:10:57.228Z,5.80
2018-01-26T16:13:24.736Z,6.77
2018-01-26T16:16:01.884Z,6.50
2018-01-26T16:18:34.893Z,7.03
2018-01-26T16:21:03.156Z,6.67
2018-01-26T16:23:30.694Z,7.97
2018-01-26T16:25:58.166Z,8.87
2018-01-26T16:28:25.687Z,10.83
2018-01-26T16:30:53.216Z,8.90
2018-01-26T16:33:20.790Z,7.97
2018-01-26T16:35:50.004Z,7.43
2018-01-26T16:38:18.548Z,8.37
2018-01-26T16:40:46.117Z,8.70
2018-01-26T16:43:14.427Z,9.30
2018-01-26T16:45:41.909Z,10.33
2018-01-26T16:48:09.404Z,9.90
2018-01-26T16:50:36.939Z,10.27
2018-01-26T16:53:04.427Z,9.65
2018-01-26T16:55:31.922Z,9.97
2018-01-26T16:57:59.445Z,11.10
2018-01-26T17:00:27.935Z,7.68
2018-01-26T17:02:55.436Z,6.80
2018-01-26T17:05:22.916Z,7.30
2018-01-26T17:07:51.007Z,6.83
2018-01-26T17:10:18.552Z,6.10
2018-01-26T17:12:46.511Z,7.50
2018-01-26T17:15:14.018Z,6.97
2018-01-26T17:17:41.778Z,5.70
2018-01-26T17:20:09.293Z,7.17
2018-01-26T17:22:36.745Z,7.23
2018-01-26T17:25:04.220Z,5.87
2018-01-26T17:27:31.688Z,6.68
2018-01-26T17:29:59.133Z,7.18
2018-01-26T17:32:26.670Z,6.50
2018-01-26T17:34:54.116Z,6.90
2018-01-26T17:37:21.756Z,6.47
2018-01-26T17:39:49.893Z,6.37
2018-01-26T17:42:17.406Z,5.60
2018-01-26T17:44:44.910Z,5.80
2018-01-26T17:47:12.353Z,8.57
2018-01-26T17:49:39.876Z,6.80
2018-01-26T17:52:07.324Z,7.35
2018-01-26T17:54:34.923Z,6.00
2018-01-26T17:57:03.184Z,5.87
2018-01-26T17:59:30.782Z,5.80
2018-01-26T18:01:58.239Z,5.90
2018-01-26T18:04:25.728Z,5.65
2018-01-26T18:06:54.369Z,5.83
2018-01-26T18:09:22.131Z,6.27
2018-01-26T18:11:49.572Z,5.43
2018-01-26T18:14:17.982Z,5.18
2018-01-26T18:16:47.923Z,5.10
2018-01-26T18:19:15.406Z,5.53
2018-01-26T18:21:42.880Z,5.10
2018-01-26T18:24:10.398Z,5.50
2018-01-26T18:26:38.935Z,4.13
2018-01-26T18:29:06.771Z,4.53
2018-01-26T18:31:34.267Z,4.90
2018-01-26T18:34:01.762Z,5.77
2018-01-26T18:36:30.177Z,6.40
2018-01-26T18:38:58.083Z,5.70
2018-01-26T18:41:25.838Z,5.75
2018-01-26T18:43:54.052Z,6.65
2018-01-26T18:46:21.533Z,6.97
2018-01-26T18:48:49.035Z,8.10
2018-01-26T18:51:17.432Z,8.23
2018-01-26T18:53:45.333Z,7.68
2018-01-26T18:56:12.820Z,8.93
2018-01-26T18:58:40.349Z,8.17
2018-01-26T19:01:07.871Z,8.20
2018-01-26T19:03:35.384Z,9.20
2018-01-26T19:06:02.864Z,9.33
2018-01-26T19:08:30.370Z,9.47
2018-01-26T19:10:57.884Z,8.50
2018-01-26T19:13:25.415Z,10.55
2018-01-26T19:15:53.320Z,10.40
2018-01-26T19:18:20.782Z,9.30
2018-01-26T19:20:48.573Z,9.30
2018-01-26T19:23:16.060Z,8.93
2018-01-26T19:25:43.747Z,8.80
2018-01-26T19:28:13.664Z,9.63
2018-01-26T19:30:41.096Z,8.77
2018-01-26T19:33:08.614Z,9.77
2018-01-26T19:35:39.455Z,9.73
2018-01-26T19:38:08.653Z,8.77
2018-01-26T19:40:36.200Z,9.07
2018-01-26T19:43:03.969Z,9.70
2018-01-26T19:45:31.538Z,9.93
2018-01-26T19:47:59.766Z,10.20
2018-01-26T19:50:27.305Z,10.70
2018-01-26T19:52:54.786Z,9.53
2018-01-26T19:55:22.280Z,8.75
2018-01-26T19:57:50.555Z,9.52
2018-01-26T20:00:18.329Z,9.85
2018-01-26T20:02:46.342Z,10.80
2018-01-26T20:05:31.307Z,9.13
2018-01-26T20:08:00.950Z,9.77
2018-01-26T20:10:29.028Z,10.70
2018-01-26T20:13:02.187Z,9.63
2018-01-26T20:15:29.855Z,8.70
2018-01-26T20:17:57.920Z,8.32
2018-01-26T20:20:25.686Z,8.20
2018-01-26T20:22:55.487Z,8.30
2018-01-26T20:25:23.223Z,7.43
2018-01-26T20:27:51.434Z,8.80
2018-01-26T20:30:19.282Z,7.32
2018-01-26T20:32:47.151Z,6.22
2018-01-26T20:35:15.123Z,6.80
2018-01-26T20:37:43.017Z,6.95
2018-01-26T20:40:10.855Z,7.05
2018-01-26T20:42:38.505Z,5.97
2018-01-26T20:45:06.814Z,7.67
2018-01-26T20:47:34.376Z,7.28
2018-01-26T20:50:02.584Z,6.55
2018-01-26T20:52:34.746Z,6.05
2018-01-26T20:55:03.907Z,6.53
2018-01-26T20:57:32.954Z,6.80
2018-01-26T21:00:00.903Z,7.57
2018-01-26T21:02:29.641Z,7.03
2018-01-26T21:04:57.466Z,7.70
2018-01-26T21:07:29.989Z,7.15
2018-01-26T21:09:57.605Z,6.43
2018-01-26T21:12:28.007Z,8.20
2018-01-26T21:14:55.705Z,8.27
2018-01-26T21:17:24.192Z,7.82
2018-01-26T21:19:51.910Z,8.63
2018-01-26T21:22:19.563Z,8.87
2018-01-26T21:24:47.521Z,10.30
2018-01-26T21:27:15.082Z,9.40
2018-01-26T21:29:43.051Z,10.20
2018-01-26T21:32:10.568Z,10.90
2018-01-26T21:34:38.226Z,11.83
2018-01-26T21:37:05.742Z,9.97
2018-01-26T21:39:34.411Z,11.17
2018-01-26T21:42:02.747Z,12.15
2018-01-26T21:44:30.455Z,11.43
2018-01-26T21:46:58.973Z,12.25
2018-01-26T21:49:27.094Z,12.64
2018-01-26T21:51:54.637Z,13.77
2018-01-26T21:54:22.318Z,14.60
2018-01-26T21:56:50.528Z,12.23
2018-01-26T21:59:18.252Z,13.63
2018-01-26T22:01:46.128Z,10.25
2018-01-26T22:04:13.750Z,12.83
2018-01-26T22:06:46.948Z,12.77
2018-01-26T22:09:14.436Z,12.20
2018-01-26T22:11:41.956Z,13.83
2018-01-26T22:14:09.397Z,13.68
2018-01-26T22:16:38.167Z,15.03
2018-01-26T22:19:05.960Z,15.05
2018-01-26T22:21:36.331Z,14.83
2018-01-26T22:24:03.779Z,15.60
2018-01-26T22:26:31.400Z,14.57
2018-01-26T22:28:58.864Z,13.98
2018-01-26T22:31:26.403Z,15.90
2018-01-26T22:33:55.567Z,14.57
2018-01-26T22:36:23.076Z,15.83
2018-01-26T22:38:50.596Z,14.47
2018-01-26T22:41:18.083Z,15.17
2018-01-26T22:43:46.409Z,16.10
2018-01-26T22:46:14.401Z,15.50
2018-01-26T22:48:41.909Z,14.95
2018-01-26T22:51:09.432Z,15.03
2018-01-26T22:53:37.667Z,13.20
2018-01-26T22:56:05.236Z,14.80
2018-01-26T22:58:32.989Z,14.53
2018-01-26T23:01:00.414Z,15.90
2018-01-26T23:03:28.497Z,15.57
2018-01-26T23:05:56.212Z,14.13
2018-01-26T23:08:23.668Z,14.00
2018-01-26T23:10:55.479Z,13.43
2018-01-26T23:13:23.606Z,15.43
2018-01-26T23:15:51.179Z,13.97
2018-01-26T23:18:18.734Z,15.57
2018-01-26T23:20:46.246Z,14.63
2018-01-26T23:23:13.758Z,13.73
2018-01-26T23:25:45.994Z,13.87
2018-01-26T23:28:13.633Z,15.03
2018-01-26T23:30:41.120Z,13.83
2018-01-26T23:33:08.632Z,14.60
2018-01-26T23:35:36.198Z,15.93
2018-01-26T23:38:03.751Z,13.85
2018-01-26T23:40:35.067Z,14.40
2018-01-26T23:43:02.508Z,15.20
2018-01-26T23:45:30.116Z,13.50
2018-01-26T23:47:57.632Z,13.15
2018-01-26T23:50:25.159Z,15.00
2018-01-26T23:52:52.816Z,14.90
2018-01-26T23:55:23.766Z,14.37
2018-01-26T23:57:51.595Z,14.30
